sensor_id;sensor_type;location;lat;lon;timestamp;pressure;altitude;pressure_sealevel;temperature;humidity
6565;BME280;3316;44.118;27.258;2023-04-06T00:02:01;100734.03;;;4.63;100.00
6565;BME280;3316;44.118;27.258;2023-04-06T00:04:26;100725.22;;;4.57;100.00
6565;BME280;3316;44.118;27.258;2023-04-06T00:06:52;100726.13;;;4.57;100.00
6565;BME280;3316;44.118;27.258;2023-04-06T00:09:17;100740.13;;;4.65;100.00
6565;BME280;3316;44.118;27.258;2023-04-06T00:11:43;100736.59;;;4.60;100.00
6565;BME280;3316;44.118;27.258;2023-04-06T00:14:08;100738.34;;;4.63;100.00
6565;BME280;3316;44.118;27.258;2023-04-06T00:16:34;100729.72;;;4.67;100.00
6565;BME280;3316;44.118;27.258;2023-04-06T00:19:00;100738.34;;;4.61;100.00
6565;BME280;3316;44.118;27.258;2023-04-06T00:21:25;100724.31;;;4.53;100.00
6565;BME280;3316;44.118;27.258;2023-04-06T00:23:51;100734.75;;;4.53;100.00
6565;BME280;3316;44.118;27.258;2023-04-06T00:26:17;100685.72;;;4.26;100.00
6565;BME280;3316;44.118;27.258;2023-04-06T00:28:42;100719.19;;;4.59;100.00
6565;BME280;3316;44.118;27.258;2023-04-06T00:31:08;100672.69;;;4.26;100.00
6565;BME280;3316;44.118;27.258;2023-04-06T00:33:33;100726.03;;;4.52;100.00
6565;BME280;3316;44.118;27.258;2023-04-06T00:35:59;100725.09;;;4.46;100.00
6565;BME280;3316;44.118;27.258;2023-04-06T00:38:24;100727.78;;;4.50;100.00
6565;BME280;3316;44.118;27.258;2023-04-06T00:40:50;100715.69;;;4.56;100.00
6565;BME280;3316;44.118;27.258;2023-04-06T00:43:15;100714.75;;;4.50;100.00
6565;BME280;3316;44.118;27.258;2023-04-06T00:45:41;100708.69;;;4.53;100.00
6565;BME280;3316;44.118;27.258;2023-04-06T00:48:07;100716.59;;;4.61;100.00
6565;BME280;3316;44.118;27.258;2023-04-06T00:50:34;100714.81;;;4.57;100.00
6565;BME280;3316;44.118;27.258;2023-04-06T00:53:00;100715.56;;;4.48;100.00
6565;BME280;3316;44.118;27.258;2023-04-06T00:55:29;100709.47;;;4.47;100.00
6565;BME280;3316;44.118;27.258;2023-04-06T00:57:55;100699.72;;;4.34;100.00
6565;BME280;3316;44.118;27.258;2023-04-06T01:00:22;100671.78;;;4.24;100.00
6565;BME280;3316;44.118;27.258;2023-04-06T01:02:47;100701.53;;;4.40;100.00
6565;BME280;3316;44.118;27.258;2023-04-06T01:05:13;100698.97;;;4.41;100.00
6565;BME280;3316;44.118;27.258;2023-04-06T01:07:38;100703.34;;;4.44;100.00
6565;BME280;3316;44.118;27.258;2023-04-06T01:10:04;100696.31;;;4.38;100.00
6565;BME280;3316;44.118;27.258;2023-04-06T01:12:30;100699.88;;;4.45;100.00
6565;BME280;3316;44.118;27.258;2023-04-06T01:14:56;100685.91;;;4.40;100.00
6565;BME280;3316;44.118;27.258;2023-04-06T01:17:22;100686.81;;;4.43;100.00
6565;BME280;3316;44.118;27.258;2023-04-06T01:19:47;100688.59;;;4.44;100.00
6565;BME280;3316;44.118;27.258;2023-04-06T01:22:18;100678.00;;;4.34;100.00
6565;BME280;3316;44.118;27.258;2023-04-06T01:24:44;100684.28;;;4.46;100.00
6565;BME280;3316;44.118;27.258;2023-04-06T01:27:09;100685.22;;;4.51;100.00
6565;BME280;3316;44.118;27.258;2023-04-06T01:29:35;100673.72;;;4.39;100.00
6565;BME280;3316;44.118;27.258;2023-04-06T01:32:01;100684.22;;;4.42;100.00
6565;BME280;3316;44.118;27.258;2023-04-06T01:34:26;100673.69;;;4.34;100.00
6565;BME280;3316;44.118;27.258;2023-04-06T01:36:52;100676.38;;;4.40;100.00
6565;BME280;3316;44.118;27.258;2023-04-06T01:39:18;100676.31;;;4.37;100.00
6565;BME280;3316;44.118;27.258;2023-04-06T01:41:44;100672.88;;;4.38;100.00
6565;BME280;3316;44.118;27.258;2023-04-06T01:44:09;100634.31;;;4.15;100.00
6565;BME280;3316;44.118;27.258;2023-04-06T01:46:35;100668.50;;;4.37;100.00
6565;BME280;3316;44.118;27.258;2023-04-06T01:49:00;100668.56;;;4.40;100.00
6565;BME280;3316;44.118;27.258;2023-04-06T01:51:26;100594.06;;;3.93;100.00
6565;BME280;3316;44.118;27.258;2023-04-06T01:53:51;100648.41;;;4.29;100.00
6565;BME280;3316;44.118;27.258;2023-04-06T01:56:17;100660.63;;;4.33;100.00
6565;BME280;3316;44.118;27.258;2023-04-06T01:58:42;100626.50;;;4.15;100.00
6565;BME280;3316;44.118;27.258;2023-04-06T02:01:08;100650.16;;;4.28;100.00
6565;BME280;3316;44.118;27.258;2023-04-06T02:03:33;100655.34;;;4.28;100.00
6565;BME280;3316;44.118;27.258;2023-04-06T02:05:59;100642.22;;;4.21;100.00
6565;BME280;3316;44.118;27.258;2023-04-06T02:08:24;100616.72;;;4.00;100.00
6565;BME280;3316;44.118;27.258;2023-04-06T02:10:50;100644.63;;;4.09;100.00
6565;BME280;3316;44.118;27.258;2023-04-06T02:13:15;100644.59;;;4.07;100.00
6565;BME280;3316;44.118;27.258;2023-04-06T02:15:41;100650.66;;;4.08;100.00
6565;BME280;3316;44.118;27.258;2023-04-06T02:18:06;100648.13;;;4.11;100.00
6565;BME280;3316;44.118;27.258;2023-04-06T02:20:32;100642.91;;;4.09;100.00
6565;BME280;3316;44.118;27.258;2023-04-06T02:22:58;100639.41;;;4.07;100.00
6565;BME280;3316;44.118;27.258;2023-04-06T02:25:25;100627.13;;;4.00;100.00
6565;BME280;3316;44.118;27.258;2023-04-06T02:27:51;100611.47;;;3.97;100.00
6565;BME280;3316;44.118;27.258;2023-04-06T02:30:17;100629.63;;;3.94;100.00
6565;BME280;3316;44.118;27.258;2023-04-06T02:32:42;100631.41;;;3.97;100.00
6565;BME280;3316;44.118;27.258;2023-04-06T02:35:08;100630.41;;;3.90;100.00
6565;BME280;3316;44.118;27.258;2023-04-06T02:37:33;100628.69;;;3.91;100.00
6565;BME280;3316;44.118;27.258;2023-04-06T02:39:59;100565.66;;;3.53;100.00
6565;BME280;3316;44.118;27.258;2023-04-06T02:42:25;100623.47;;;3.89;100.00
6565;BME280;3316;44.118;27.258;2023-04-06T02:44:50;100615.44;;;3.76;100.00
6565;BME280;3316;44.118;27.258;2023-04-06T02:47:15;100635.56;;;3.84;100.00
6565;BME280;3316;44.118;27.258;2023-04-06T02:49:41;100630.34;;;3.84;100.00
6565;BME280;3316;44.118;27.258;2023-04-06T02:52:06;100629.38;;;3.79;100.00
6565;BME280;3316;44.118;27.258;2023-04-06T02:54:32;100628.38;;;3.71;100.00
6565;BME280;3316;44.118;27.258;2023-04-06T02:56:57;100625.66;;;3.63;100.00
6565;BME280;3316;44.118;27.258;2023-04-06T02:59:23;100622.94;;;3.57;100.00
6565;BME280;3316;44.118;27.258;2023-04-06T03:01:48;100622.13;;;3.61;100.00
6565;BME280;3316;44.118;27.258;2023-04-06T03:04:14;100632.56;;;3.63;100.00
6565;BME280;3316;44.118;27.258;2023-04-06T03:06:40;100613.31;;;3.53;100.00
6565;BME280;3316;44.118;27.258;2023-04-06T03:09:06;100635.16;;;3.63;100.00
6565;BME280;3316;44.118;27.258;2023-04-06T03:11:31;100629.03;;;3.59;100.00
6565;BME280;3316;44.118;27.258;2023-04-06T03:13:57;100624.59;;;3.52;100.00
6565;BME280;3316;44.118;27.258;2023-04-06T03:16:22;100632.44;;;3.57;100.00
6565;BME280;3316;44.118;27.258;2023-04-06T03:18:48;100624.66;;;3.57;100.00
6565;BME280;3316;44.118;27.258;2023-04-06T03:21:14;100619.44;;;3.55;100.00
6565;BME280;3316;44.118;27.258;2023-04-06T03:23:42;100613.31;;;3.52;100.00
6565;BME280;3316;44.118;27.258;2023-04-06T03:26:08;100628.16;;;3.59;100.00
6565;BME280;3316;44.118;27.258;2023-04-06T03:28:33;100611.59;;;3.52;100.00
6565;BME280;3316;44.118;27.258;2023-04-06T03:30:59;100620.28;;;3.53;100.00
6565;BME280;3316;44.118;27.258;2023-04-06T03:33:25;100621.16;;;3.55;100.00
6565;BME280;3316;44.118;27.258;2023-04-06T03:35:52;100617.69;;;3.53;100.00
6565;BME280;3316;44.118;27.258;2023-04-06T03:38:18;100622.22;;;3.65;100.00
6565;BME280;3316;44.118;27.258;2023-04-06T03:40:43;100623.03;;;3.63;100.00
6565;BME280;3316;44.118;27.258;2023-04-06T03:43:09;100621.22;;;3.59;100.00
6565;BME280;3316;44.118;27.258;2023-04-06T03:45:34;100629.97;;;3.63;100.00
6565;BME280;3316;44.118;27.258;2023-04-06T03:48:00;100631.72;;;3.64;100.00
6565;BME280;3316;44.118;27.258;2023-04-06T03:50:25;100635.06;;;3.57;100.00
6565;BME280;3316;44.118;27.258;2023-04-06T03:52:51;100633.56;;;3.70;100.00
6565;BME280;3316;44.118;27.258;2023-04-06T03:55:17;100626.47;;;3.61;100.00
6565;BME280;3316;44.118;27.258;2023-04-06T03:57:42;100635.28;;;3.69;100.00
6565;BME280;3316;44.118;27.258;2023-04-06T04:00:08;100604.69;;;3.54;100.00
6565;BME280;3316;44.118;27.258;2023-04-06T04:02:34;100620.50;;;3.67;100.00
6565;BME280;3316;44.118;27.258;2023-04-06T04:04:59;100632.75;;;3.74;100.00
6565;BME280;3316;44.118;27.258;2023-04-06T04:07:25;100638.06;;;3.80;100.00
6565;BME280;3316;44.118;27.258;2023-04-06T04:09:50;100629.34;;;3.76;100.00
6565;BME280;3316;44.118;27.258;2023-04-06T04:12:16;100631.97;;;3.79;100.00
6565;BME280;3316;44.118;27.258;2023-04-06T04:14:42;100616.34;;;3.78;100.00
6565;BME280;3316;44.118;27.258;2023-04-06T04:17:08;100626.78;;;3.79;100.00
6565;BME280;3316;44.118;27.258;2023-04-06T04:19:33;100634.69;;;3.84;100.00
6565;BME280;3316;44.118;27.258;2023-04-06T04:21:58;100641.69;;;3.89;100.00
6565;BME280;3316;44.118;27.258;2023-04-06T04:24:24;100620.88;;;3.89;100.00
6565;BME280;3316;44.118;27.258;2023-04-06T04:26:49;100640.94;;;3.96;100.00
6565;BME280;3316;44.118;27.258;2023-04-06T04:29:15;100627.91;;;3.96;100.00
6565;BME280;3316;44.118;27.258;2023-04-06T04:31:41;100637.53;;;4.00;100.00
6565;BME280;3316;44.118;27.258;2023-04-06T04:34:07;100622.59;;;3.89;100.00
6565;BME280;3316;44.118;27.258;2023-04-06T04:36:32;100615.81;;;3.98;100.00
6565;BME280;3316;44.118;27.258;2023-04-06T04:38:58;100628.88;;;4.01;100.00
6565;BME280;3316;44.118;27.258;2023-04-06T04:41:26;100630.63;;;4.02;100.00
6565;BME280;3316;44.118;27.258;2023-04-06T04:43:51;100622.84;;;4.04;100.00
6565;BME280;3316;44.118;27.258;2023-04-06T04:46:17;100583.34;;;3.75;100.00
6565;BME280;3316;44.118;27.258;2023-04-06T04:48:42;100632.53;;;4.12;100.00
6565;BME280;3316;44.118;27.258;2023-04-06T04:51:08;100632.50;;;4.11;100.00
6565;BME280;3316;44.118;27.258;2023-04-06T04:53:33;100634.22;;;4.09;100.00
6565;BME280;3316;44.118;27.258;2023-04-06T04:55:58;100627.31;;;4.12;100.00
6565;BME280;3316;44.118;27.258;2023-04-06T04:58:24;100628.09;;;4.05;100.00
6565;BME280;3316;44.118;27.258;2023-04-06T05:00:49;100643.97;;;4.23;100.00
6565;BME280;3316;44.118;27.258;2023-04-06T05:03:21;100647.56;;;4.30;100.00
6565;BME280;3316;44.118;27.258;2023-04-06T05:05:48;100638.03;;;4.32;100.00
6565;BME280;3316;44.118;27.258;2023-04-06T05:08:13;100636.34;;;4.37;100.00
6565;BME280;3316;44.118;27.258;2023-04-06T05:10:39;100637.13;;;4.30;100.00
6565;BME280;3316;44.118;27.258;2023-04-06T05:13:05;100638.06;;;4.35;100.00
6565;BME280;3316;44.118;27.258;2023-04-06T05:15:31;100633.81;;;4.38;100.00
6565;BME280;3316;44.118;27.258;2023-04-06T05:17:56;100599.78;;;4.28;100.00
6565;BME280;3316;44.118;27.258;2023-04-06T05:20:22;100640.03;;;4.51;100.00
6565;BME280;3316;44.118;27.258;2023-04-06T05:22:47;100637.41;;;4.46;100.00
6565;BME280;3316;44.118;27.258;2023-04-06T05:25:14;100631.41;;;4.53;100.00
6565;BME280;3316;44.118;27.258;2023-04-06T05:27:39;100639.22;;;4.52;100.00
6565;BME280;3316;44.118;27.258;2023-04-06T05:30:06;100629.69;;;4.54;100.00
6565;BME280;3316;44.118;27.258;2023-04-06T05:32:32;100635.75;;;4.54;100.00
6565;BME280;3316;44.118;27.258;2023-04-06T05:34:58;100628.00;;;4.58;100.00
6565;BME280;3316;44.118;27.258;2023-04-06T05:37:23;100630.69;;;4.64;100.00
6565;BME280;3316;44.118;27.258;2023-04-06T05:39:49;100638.59;;;4.73;100.00
6565;BME280;3316;44.118;27.258;2023-04-06T05:42:14;100619.34;;;4.62;100.00
6565;BME280;3316;44.118;27.258;2023-04-06T05:44:40;100626.50;;;4.76;100.00
6565;BME280;3316;44.118;27.258;2023-04-06T05:47:06;100580.09;;;4.49;100.00
6565;BME280;3316;44.118;27.258;2023-04-06T05:49:31;100634.47;;;4.90;100.00
6565;BME280;3316;44.118;27.258;2023-04-06T05:51:57;100591.75;;;4.76;100.00
6565;BME280;3316;44.118;27.258;2023-04-06T05:54:22;100641.47;;;4.91;100.00
6565;BME280;3316;44.118;27.258;2023-04-06T05:56:47;100633.66;;;4.92;100.00
6565;BME280;3316;44.118;27.258;2023-04-06T05:59:13;100624.13;;;4.94;100.00
6565;BME280;3316;44.118;27.258;2023-04-06T06:01:38;100624.34;;;5.14;100.00
6565;BME280;3316;44.118;27.258;2023-04-06T06:04:04;100614.06;;;5.27;100.00
6565;BME280;3316;44.118;27.258;2023-04-06T06:06:29;100624.72;;;5.49;100.00
6565;BME280;3316;44.118;27.258;2023-04-06T06:08:56;100630.81;;;5.46;100.00
6565;BME280;3316;44.118;27.258;2023-04-06T06:11:24;100633.22;;;5.32;100.00
6565;BME280;3316;44.118;27.258;2023-04-06T06:13:50;100616.59;;;5.21;100.00
6565;BME280;3316;44.118;27.258;2023-04-06T06:16:17;100628.84;;;5.27;100.00
6565;BME280;3316;44.118;27.258;2023-04-06T06:18:42;100627.09;;;5.26;100.00
6565;BME280;3316;44.118;27.258;2023-04-06T06:21:08;100628.94;;;5.36;100.00
6565;BME280;3316;44.118;27.258;2023-04-06T06:23:34;100632.41;;;5.35;100.00
6565;BME280;3316;44.118;27.258;2023-04-06T06:26:00;100625.38;;;5.28;100.00
6565;BME280;3316;44.118;27.258;2023-04-06T06:28:26;100617.50;;;5.22;100.00
6565;BME280;3316;44.118;27.258;2023-04-06T06:30:52;100634.31;;;5.51;100.00
6565;BME280;3316;44.118;27.258;2023-04-06T06:33:17;100641.28;;;5.52;100.00
6565;BME280;3316;44.118;27.258;2023-04-06T06:35:42;100624.84;;;5.61;100.00
6565;BME280;3316;44.118;27.258;2023-04-06T06:38:08;100643.13;;;5.61;100.00
6565;BME280;3316;44.118;27.258;2023-04-06T06:40:34;100642.97;;;5.47;100.00
6565;BME280;3316;44.118;27.258;2023-04-06T06:42:59;100630.81;;;5.49;100.00
6565;BME280;3316;44.118;27.258;2023-04-06T06:45:25;100640.50;;;5.61;100.00
6565;BME280;3316;44.118;27.258;2023-04-06T06:47:50;100586.41;;;5.43;100.00
6565;BME280;3316;44.118;27.258;2023-04-06T06:50:16;100648.59;;;5.85;100.00
6565;BME280;3316;44.118;27.258;2023-04-06T06:52:43;100650.38;;;5.89;100.00
6565;BME280;3316;44.118;27.258;2023-04-06T06:55:09;100647.00;;;6.03;100.00
6565;BME280;3316;44.118;27.258;2023-04-06T06:57:35;100650.63;;;6.17;100.00
6565;BME280;3316;44.118;27.258;2023-04-06T07:00:01;100643.72;;;6.25;100.00
6565;BME280;3316;44.118;27.258;2023-04-06T07:02:26;100653.94;;;6.00;100.00
6565;BME280;3316;44.118;27.258;2023-04-06T07:04:52;100651.44;;;6.10;100.00
6565;BME280;3316;44.118;27.258;2023-04-06T07:07:17;100640.06;;;6.05;100.00
6565;BME280;3316;44.118;27.258;2023-04-06T07:09:43;100646.06;;;5.97;100.00
6565;BME280;3316;44.118;27.258;2023-04-06T07:12:08;100648.75;;;6.03;100.00
6565;BME280;3316;44.118;27.258;2023-04-06T07:14:34;100647.13;;;6.18;100.00
6565;BME280;3316;44.118;27.258;2023-04-06T07:16:59;100593.84;;;5.95;100.00
6565;BME280;3316;44.118;27.258;2023-04-06T07:19:25;100639.28;;;6.17;100.00
6565;BME280;3316;44.118;27.258;2023-04-06T07:21:50;100646.28;;;6.18;100.00
6565;BME280;3316;44.118;27.258;2023-04-06T07:24:16;100632.28;;;6.13;100.00
6565;BME280;3316;44.118;27.258;2023-04-06T07:26:42;100636.63;;;6.12;100.00
6565;BME280;3316;44.118;27.258;2023-04-06T07:29:07;100649.88;;;6.34;100.00
6565;BME280;3316;44.118;27.258;2023-04-06T07:31:33;100642.13;;;6.50;100.00
6565;BME280;3316;44.118;27.258;2023-04-06T07:34:00;100642.13;;;6.52;100.00
6565;BME280;3316;44.118;27.258;2023-04-06T07:36:26;100634.31;;;6.53;100.00
6565;BME280;3316;44.118;27.258;2023-04-06T07:38:51;100648.28;;;6.60;100.00
6565;BME280;3316;44.118;27.258;2023-04-06T07:41:17;100642.28;;;6.73;100.00
6565;BME280;3316;44.118;27.258;2023-04-06T07:43:42;100644.78;;;6.56;100.00
6565;BME280;3316;44.118;27.258;2023-04-06T07:46:08;100641.22;;;6.47;100.00
6565;BME280;3316;44.118;27.258;2023-04-06T07:48:33;100629.19;;;6.74;100.00
6565;BME280;3316;44.118;27.258;2023-04-06T07:51:03;100646.72;;;6.96;100.00
6565;BME280;3316;44.118;27.258;2023-04-06T07:53:29;100631.91;;;6.97;100.00
6565;BME280;3316;44.118;27.258;2023-04-06T07:55:56;100642.44;;;7.09;100.00
6565;BME280;3316;44.118;27.258;2023-04-06T07:58:21;100617.16;;;7.08;100.00
6565;BME280;3316;44.118;27.258;2023-04-06T08:00:47;100645.09;;;7.32;100.00
6565;BME280;3316;44.118;27.258;2023-04-06T08:03:12;100627.59;;;7.09;100.00
6565;BME280;3316;44.118;27.258;2023-04-06T08:05:38;100650.38;;;7.36;100.00
6565;BME280;3316;44.118;27.258;2023-04-06T08:08:03;100641.63;;;7.25;100.00
6565;BME280;3316;44.118;27.258;2023-04-06T08:10:29;100647.72;;;7.21;100.00
6565;BME280;3316;44.118;27.258;2023-04-06T08:12:55;100642.44;;;7.06;100.00
6565;BME280;3316;44.118;27.258;2023-04-06T08:15:20;100649.38;;;7.07;100.00
6565;BME280;3316;44.118;27.258;2023-04-06T08:17:46;100623.22;;;7.08;100.00
6565;BME280;3316;44.118;27.258;2023-04-06T08:20:11;100625.06;;;7.32;100.00
6565;BME280;3316;44.118;27.258;2023-04-06T08:22:37;100608.47;;;7.32;100.00
6565;BME280;3316;44.118;27.258;2023-04-06T08:25:03;100646.06;;;7.56;100.00
6565;BME280;3316;44.118;27.258;2023-04-06T08:27:28;100641.72;;;7.73;100.00
6565;BME280;3316;44.118;27.258;2023-04-06T08:29:54;100631.25;;;8.16;100.00
6565;BME280;3316;44.118;27.258;2023-04-06T08:32:20;100643.50;;;8.44;100.00
6565;BME280;3316;44.118;27.258;2023-04-06T08:34:46;100636.50;;;8.41;100.00
6565;BME280;3316;44.118;27.258;2023-04-06T08:37:12;100618.16;;;8.26;100.00
6565;BME280;3316;44.118;27.258;2023-04-06T08:39:37;100642.59;;;8.48;100.00
6565;BME280;3316;44.118;27.258;2023-04-06T08:42:03;100616.31;;;8.69;100.00
6565;BME280;3316;44.118;27.258;2023-04-06T08:44:29;100624.16;;;8.82;100.00
6565;BME280;3316;44.118;27.258;2023-04-06T08:46:55;100611.09;;;8.63;100.00
6565;BME280;3316;44.118;27.258;2023-04-06T08:49:21;100636.47;;;8.55;100.00
6565;BME280;3316;44.118;27.258;2023-04-06T08:51:48;100608.53;;;8.31;100.00
6565;BME280;3316;44.118;27.258;2023-04-06T08:54:14;100640.00;;;8.30;100.00
6565;BME280;3316;44.118;27.258;2023-04-06T08:56:40;100618.19;;;8.31;100.00
6565;BME280;3316;44.118;27.258;2023-04-06T08:59:06;100591.91;;;8.49;100.00
6565;BME280;3316;44.118;27.258;2023-04-06T09:01:35;100641.56;;;9.03;100.00
6565;BME280;3316;44.118;27.258;2023-04-06T09:04:04;100634.56;;;9.02;100.00
6565;BME280;3316;44.118;27.258;2023-04-06T09:06:36;100633.75;;;8.82;100.00
6565;BME280;3316;44.118;27.258;2023-04-06T09:09:02;100603.22;;;8.67;100.00
6565;BME280;3316;44.118;27.258;2023-04-06T09:11:28;100625.00;;;8.86;100.00
6565;BME280;3316;44.118;27.258;2023-04-06T09:13:55;100628.50;;;8.91;100.00
6565;BME280;3316;44.118;27.258;2023-04-06T09:16:21;100638.91;;;9.12;100.00
6565;BME280;3316;44.118;27.258;2023-04-06T09:18:48;100624.75;;;9.39;100.00
6565;BME280;3316;44.118;27.258;2023-04-06T09:21:17;100636.09;;;9.51;100.00
6565;BME280;3316;44.118;27.258;2023-04-06T09:23:44;100628.13;;;9.63;100.00
6565;BME280;3316;44.118;27.258;2023-04-06T09:26:25;100637.69;;;9.75;100.00
6565;BME280;3316;44.118;27.258;2023-04-06T09:28:53;100641.38;;;9.44;100.00
6565;BME280;3316;44.118;27.258;2023-04-06T09:31:23;100637.81;;;9.51;100.00
6565;BME280;3316;44.118;27.258;2023-04-06T09:33:49;100625.44;;;9.71;100.00
6565;BME280;3316;44.118;27.258;2023-04-06T09:36:14;100641.28;;;9.56;100.00
6565;BME280;3316;44.118;27.258;2023-04-06T09:38:54;100622.84;;;9.66;100.00
6565;BME280;3316;44.118;27.258;2023-04-06T09:41:29;100626.94;;;10.10;100.00
6565;BME280;3316;44.118;27.258;2023-04-06T09:44:04;100610.41;;;9.93;100.00
6565;BME280;3316;44.118;27.258;2023-04-06T09:46:38;100620.75;;;10.15;100.00
6565;BME280;3316;44.118;27.258;2023-04-06T09:49:08;100606.78;;;10.06;100.00
6565;BME280;3316;44.118;27.258;2023-04-06T09:51:38;100638.59;;;10.72;100.00
6565;BME280;3316;44.118;27.258;2023-04-06T09:54:04;100599.03;;;10.80;100.00
6565;BME280;3316;44.118;27.258;2023-04-06T09:56:36;100613.06;;;10.79;100.00
6565;BME280;3316;44.118;27.258;2023-04-06T09:59:08;100627.25;;;10.66;100.00
6565;BME280;3316;44.118;27.258;2023-04-06T10:01:37;100633.47;;;10.59;100.00
6565;BME280;3316;44.118;27.258;2023-04-06T10:06:46;100618.38;;;10.73;100.00
6565;BME280;3316;44.118;27.258;2023-04-06T10:09:17;100605.84;;;10.95;100.00
6565;BME280;3316;44.118;27.258;2023-04-06T10:11:42;100623.00;;;10.51;100.00
6565;BME280;3316;44.118;27.258;2023-04-06T10:14:09;100627.84;;;10.91;100.00
6565;BME280;3316;44.118;27.258;2023-04-06T10:16:35;100627.03;;;11.52;100.00
6565;BME280;3316;44.118;27.258;2023-04-06T10:19:22;100619.34;;;11.36;100.00
6565;BME280;3316;44.118;27.258;2023-04-06T10:21:51;100620.34;;;11.29;100.00
6565;BME280;3316;44.118;27.258;2023-04-06T10:24:19;100624.75;;;11.27;100.00
6565;BME280;3316;44.118;27.258;2023-04-06T10:27:06;100638.19;;;11.07;100.00
6565;BME280;3316;44.118;27.258;2023-04-06T10:29:43;100639.41;;;10.77;100.00
6565;BME280;3316;44.118;27.258;2023-04-06T10:32:09;100620.06;;;10.82;100.00
6565;BME280;3316;44.118;27.258;2023-04-06T10:34:35;100599.72;;;10.96;100.00
6565;BME280;3316;44.118;27.258;2023-04-06T10:37:13;100627.75;;;10.97;100.00
6565;BME280;3316;44.118;27.258;2023-04-06T10:39:47;100616.78;;;11.33;100.00
6565;BME280;3316;44.118;27.258;2023-04-06T10:42:13;100626.34;;;11.38;100.00
6565;BME280;3316;44.118;27.258;2023-04-06T10:44:42;100619.13;;;11.51;100.00
6565;BME280;3316;44.118;27.258;2023-04-06T10:47:16;100605.59;;;11.14;100.00
6565;BME280;3316;44.118;27.258;2023-04-06T10:49:43;100604.16;;;10.91;100.00
6565;BME280;3316;44.118;27.258;2023-04-06T10:52:08;100625.16;;;10.95;100.00
6565;BME280;3316;44.118;27.258;2023-04-06T10:54:38;100610.50;;;10.74;100.00
6565;BME280;3316;44.118;27.258;2023-04-06T10:57:06;100615.84;;;10.65;100.00
6565;BME280;3316;44.118;27.258;2023-04-06T10:59:31;100613.25;;;10.64;100.00
6565;BME280;3316;44.118;27.258;2023-04-06T11:01:57;100623.88;;;10.55;100.00
6565;BME280;3316;44.118;27.258;2023-04-06T11:04:22;100626.34;;;10.67;100.00
6565;BME280;3316;44.118;27.258;2023-04-06T11:06:49;100614.97;;;10.65;100.00
6565;BME280;3316;44.118;27.258;2023-04-06T11:11:50;100624.66;;;10.64;100.00
6565;BME280;3316;44.118;27.258;2023-04-06T11:14:15;100626.19;;;10.82;100.00
6565;BME280;3316;44.118;27.258;2023-04-06T11:16:41;100604.19;;;10.88;100.00
6565;BME280;3316;44.118;27.258;2023-04-06T11:19:07;100610.53;;;10.70;100.00
6565;BME280;3316;44.118;27.258;2023-04-06T11:21:36;100611.59;;;10.54;100.00
6565;BME280;3316;44.118;27.258;2023-04-06T11:24:17;100599.56;;;10.29;100.00
6565;BME280;3316;44.118;27.258;2023-04-06T11:26:53;100623.66;;;10.73;100.00
6565;BME280;3316;44.118;27.258;2023-04-06T11:29:22;100617.16;;;11.03;100.00
6565;BME280;3316;44.118;27.258;2023-04-06T11:31:53;100612.91;;;10.94;100.00
6565;BME280;3316;44.118;27.258;2023-04-06T11:34:23;100608.66;;;10.81;100.00
6565;BME280;3316;44.118;27.258;2023-04-06T11:36:59;100618.25;;;10.85;100.00
6565;BME280;3316;44.118;27.258;2023-04-06T11:39:26;100603.25;;;10.93;100.00
6565;BME280;3316;44.118;27.258;2023-04-06T11:42:02;100611.75;;;11.15;100.00
6565;BME280;3316;44.118;27.258;2023-04-06T11:44:33;100611.59;;;11.27;100.00
6565;BME280;3316;44.118;27.258;2023-04-06T11:47:00;100574.00;;;11.14;100.00
6565;BME280;3316;44.118;27.258;2023-04-06T11:49:33;100604.34;;;11.42;100.00
6565;BME280;3316;44.118;27.258;2023-04-06T11:52:02;100574.34;;;10.87;100.00
6565;BME280;3316;44.118;27.258;2023-04-06T11:54:35;100609.16;;;11.10;100.00
6565;BME280;3316;44.118;27.258;2023-04-06T11:57:04;100605.50;;;11.22;100.00
6565;BME280;3316;44.118;27.258;2023-04-06T11:59:30;100615.09;;;11.26;100.00
6565;BME280;3316;44.118;27.258;2023-04-06T12:01:57;100601.16;;;11.18;100.00
6565;BME280;3316;44.118;27.258;2023-04-06T12:04:23;100600.13;;;11.29;100.00
6565;BME280;3316;44.118;27.258;2023-04-06T12:06:48;100609.00;;;11.25;99.71
6565;BME280;3316;44.118;27.258;2023-04-06T12:09:16;100613.28;;;11.29;100.00
6565;BME280;3316;44.118;27.258;2023-04-06T12:11:42;100607.34;;;11.79;100.00
6565;BME280;3316;44.118;27.258;2023-04-06T12:14:08;100604.47;;;11.93;95.37
6565;BME280;3316;44.118;27.258;2023-04-06T12:16:34;100598.78;;;11.62;95.79
6565;BME280;3316;44.118;27.258;2023-04-06T12:19:00;100620.31;;;11.91;96.07
6565;BME280;3316;44.118;27.258;2023-04-06T12:21:35;100614.34;;;11.80;94.91
6565;BME280;3316;44.118;27.258;2023-04-06T12:24:02;100610.38;;;11.50;95.46
6565;BME280;3316;44.118;27.258;2023-04-06T12:26:29;100598.78;;;11.62;97.29
6565;BME280;3316;44.118;27.258;2023-04-06T12:28:55;100611.03;;;12.21;98.46
6565;BME280;3316;44.118;27.258;2023-04-06T12:31:22;100618.31;;;12.56;93.01
6565;BME280;3316;44.118;27.258;2023-04-06T12:33:51;100578.56;;;12.17;89.17
6565;BME280;3316;44.118;27.258;2023-04-06T12:36:20;100608.03;;;12.42;86.31
6565;BME280;3316;44.118;27.258;2023-04-06T12:38:49;100609.84;;;11.87;91.67
6565;BME280;3316;44.118;27.258;2023-04-06T12:41:16;100615.41;;;11.70;91.43
6565;BME280;3316;44.118;27.258;2023-04-06T12:43:42;100618.56;;;11.90;94.69
6565;BME280;3316;44.118;27.258;2023-04-06T12:46:08;100604.41;;;11.96;95.07
6565;BME280;3316;44.118;27.258;2023-04-06T12:48:33;100616.13;;;11.80;97.17
6565;BME280;3316;44.118;27.258;2023-04-06T12:51:01;100610.94;;;11.74;96.76
6565;BME280;3316;44.118;27.258;2023-04-06T12:53:27;100616.41;;;11.58;92.05
6565;BME280;3316;44.118;27.258;2023-04-06T12:55:54;100588.66;;;11.33;94.55
6565;BME280;3316;44.118;27.258;2023-04-06T12:58:19;100605.03;;;11.56;94.50
6565;BME280;3316;44.118;27.258;2023-04-06T13:00:46;100610.09;;;11.72;95.47